createdAt,value
2019-01-28T00:00:21.318Z,73.12
2019-01-28T00:02:49.741Z,73.22
2019-01-28T00:05:19.640Z,73.51
2019-01-28T00:07:48.990Z,73.44
2019-01-28T00:10:19.594Z,73.36
2019-01-28T00:12:49.528Z,73.55
2019-01-28T00:15:20.049Z,73.18
2019-01-28T00:17:49.992Z,73.60
2019-01-28T00:20:20.444Z,74.55
2019-01-28T00:22:50.339Z,75.15
2019-01-28T00:25:21.719Z,74.98
2019-01-28T00:27:52.273Z,75.41
2019-01-28T00:30:22.634Z,75.36
2019-01-28T00:32:52.078Z,75.41
2019-01-28T00:35:22.380Z,75.12
2019-01-28T00:37:52.338Z,75.72
2019-01-28T00:40:22.153Z,76.66
2019-01-28T00:42:52.078Z,77.20
2019-01-28T00:45:22.414Z,77.08
2019-01-28T00:47:52.449Z,76.65
2019-01-28T00:50:21.922Z,76.64
2019-01-28T00:52:52.240Z,76.32
2019-01-28T00:55:21.235Z,75.59
2019-01-28T00:57:51.282Z,74.65
2019-01-28T01:00:25.801Z,74.44
2019-01-28T01:02:55.591Z,74.26
2019-01-28T01:05:25.592Z,74.05
2019-01-28T01:07:54.725Z,74.21
2019-01-28T01:10:24.770Z,74.48
2019-01-28T01:12:54.699Z,74.50
2019-01-28T01:15:25.134Z,74.90
2019-01-28T01:17:53.986Z,74.29
2019-01-28T01:20:24.020Z,74.48
2019-01-28T01:22:53.869Z,74.86
2019-01-28T01:25:24.529Z,74.97
2019-01-28T01:27:54.874Z,75.01
2019-01-28T01:30:24.703Z,75.00
2019-01-28T01:32:54.982Z,74.93
2019-01-28T01:35:26.238Z,75.13
2019-01-28T01:37:57.537Z,75.10
2019-01-28T01:43:18.537Z,75.54
2019-01-28T01:45:50.442Z,75.50
2019-01-28T01:48:20.833Z,75.18
2019-01-28T01:50:50.675Z,75.31
2019-01-28T01:53:41.622Z,75.92
2019-01-28T01:56:11.557Z,76.08
2019-01-28T01:58:44.986Z,75.53
2019-01-28T02:01:15.981Z,75.42
2019-01-28T02:03:45.849Z,76.01
2019-01-28T02:06:15.334Z,76.25
2019-01-28T02:08:44.250Z,76.73
2019-01-28T02:11:15.995Z,76.55
2019-01-28T02:13:45.911Z,76.71
2019-01-28T02:16:15.211Z,76.96
2019-01-28T02:18:45.415Z,77.04
2019-01-28T02:21:16.145Z,77.22
2019-01-28T02:23:46.130Z,76.76
2019-01-28T02:26:16.865Z,76.84
2019-01-28T02:28:46.605Z,76.75
2019-01-28T02:31:16.774Z,76.87
2019-01-28T02:34:06.844Z,76.92
2019-01-28T02:36:35.403Z,76.72
2019-01-28T02:39:06.846Z,77.63
2019-01-28T02:41:36.455Z,77.66
2019-01-28T02:44:06.686Z,77.68
2019-01-28T02:46:36.935Z,77.75
2019-01-28T02:49:06.188Z,77.55
2019-01-28T02:51:36.450Z,77.62
2019-01-28T02:54:06.934Z,77.69
2019-01-28T02:56:36.971Z,77.53
2019-01-28T02:59:06.292Z,77.56
2019-01-28T03:01:43.030Z,77.67
2019-01-28T03:04:11.715Z,77.69
2019-01-28T03:06:41.646Z,77.72
2019-01-28T03:09:11.799Z,77.92
2019-01-28T03:11:43.775Z,77.76
2019-01-28T03:14:12.091Z,77.37
2019-01-28T03:16:42.201Z,77.09
2019-01-28T03:19:11.743Z,76.94
2019-01-28T03:21:42.437Z,76.38
2019-01-28T03:24:13.462Z,76.42
2019-01-28T03:26:43.574Z,76.49
2019-01-28T03:29:13.349Z,76.25
2019-01-28T03:31:42.157Z,76.12
2019-01-28T03:34:11.989Z,76.01
2019-01-28T03:36:42.425Z,75.79
2019-01-28T03:39:11.951Z,76.25
2019-01-28T03:41:42.433Z,75.99
2019-01-28T03:44:12.316Z,75.49
2019-01-28T03:46:42.585Z,75.28
2019-01-28T03:49:12.709Z,75.49
2019-01-28T03:51:42.270Z,75.51
2019-01-28T03:54:11.963Z,75.35
2019-01-28T03:56:42.080Z,75.12
2019-01-28T03:59:11.628Z,75.13
2019-01-28T04:01:41.764Z,75.51
2019-01-28T04:04:13.937Z,75.45
2019-01-28T04:06:42.783Z,75.06
2019-01-28T04:09:13.055Z,74.97
2019-01-28T04:11:44.385Z,75.14
2019-01-28T04:14:13.396Z,75.08
2019-01-28T04:16:43.826Z,74.89
2019-01-28T04:19:13.669Z,74.96
2019-01-28T04:21:44.522Z,74.52
2019-01-28T04:24:16.050Z,74.37
2019-01-28T04:26:45.715Z,74.02
2019-01-28T04:29:15.862Z,73.50
2019-01-28T04:31:48.812Z,73.43
2019-01-28T04:34:18.971Z,73.45
2019-01-28T04:36:49.069Z,73.32
2019-01-28T04:39:19.273Z,73.22
2019-01-28T04:41:49.273Z,73.29
2019-01-28T04:44:19.450Z,73.30
2019-01-28T04:46:49.448Z,73.31
2019-01-28T04:49:19.111Z,73.57
2019-01-28T04:51:48.616Z,73.64
2019-01-28T04:54:18.125Z,73.44
2019-01-28T04:56:46.824Z,74.16
2019-01-28T04:59:16.762Z,74.08
2019-01-28T05:01:46.585Z,74.38
2019-01-28T05:04:16.213Z,75.46
2019-01-28T05:06:46.255Z,75.36
2019-01-28T05:09:15.468Z,75.47
2019-01-28T05:11:45.080Z,76.16
2019-01-28T05:14:14.918Z,76.76
2019-01-28T05:16:44.200Z,77.46
2019-01-28T05:19:13.240Z,77.66
2019-01-28T05:21:41.921Z,77.81
2019-01-28T05:24:10.501Z,77.85
2019-01-28T05:26:38.894Z,77.42
2019-01-28T05:29:07.384Z,77.52
2019-01-28T05:31:35.729Z,77.99
2019-01-28T05:34:04.177Z,78.44
2019-01-28T05:36:32.558Z,79.04
2019-01-28T05:39:00.873Z,79.19
2019-01-28T05:41:29.217Z,79.20
2019-01-28T05:43:58.046Z,79.55
2019-01-28T05:46:26.631Z,79.83
2019-01-28T05:48:54.939Z,79.77
2019-01-28T05:51:23.457Z,79.29
2019-01-28T05:53:52.160Z,79.59
2019-01-28T05:56:20.555Z,79.85
2019-01-28T05:58:49.536Z,79.91
2019-01-28T06:01:18.078Z,79.84
2019-01-28T06:03:46.396Z,79.60
2019-01-28T06:06:14.703Z,79.73
2019-01-28T06:08:43.246Z,79.32
2019-01-28T06:11:11.515Z,79.00
2019-01-28T06:13:39.917Z,79.28
2019-01-28T06:16:08.350Z,79.56
2019-01-28T06:18:36.699Z,79.47
2019-01-28T06:21:05.204Z,79.57
2019-01-28T06:23:34.256Z,79.72
2019-01-28T06:26:02.627Z,79.96
2019-01-28T06:28:31.041Z,79.98
2019-01-28T06:30:59.426Z,80.03
2019-01-28T06:33:27.916Z,79.92
2019-01-28T06:35:56.248Z,80.11
2019-01-28T06:38:24.572Z,80.06
2019-01-28T06:40:53.028Z,80.38
2019-01-28T06:43:21.425Z,80.23
2019-01-28T06:45:49.725Z,80.34
2019-01-28T06:48:18.446Z,80.62
2019-01-28T06:50:46.773Z,80.58
2019-01-28T06:53:15.111Z,80.77
2019-01-28T06:55:43.492Z,80.89
2019-01-28T06:58:12.102Z,81.21
2019-01-28T07:00:40.495Z,80.74
2019-01-28T07:03:08.980Z,80.39
2019-01-28T07:05:37.623Z,80.26
2019-01-28T07:08:06.367Z,79.94
2019-01-28T07:10:34.849Z,79.82
2019-01-28T07:13:03.290Z,79.79
2019-01-28T07:15:31.697Z,79.24
2019-01-28T07:18:00.053Z,78.94
2019-01-28T07:20:31.498Z,78.62
2019-01-28T07:23:00.276Z,78.45
2019-01-28T07:25:28.790Z,78.85
2019-01-28T07:27:57.465Z,78.99
2019-01-28T07:30:33.803Z,79.03
2019-01-28T07:33:02.165Z,78.06
2019-01-28T07:35:30.500Z,77.86
2019-01-28T07:37:58.857Z,78.06
2019-01-28T07:40:29.058Z,77.75
2019-01-28T07:42:57.358Z,78.26
2019-01-28T07:45:30.708Z,78.59
2019-01-28T07:48:03.058Z,78.64
2019-01-28T07:50:29.434Z,78.51
2019-01-28T07:52:57.874Z,79.04
2019-01-28T07:55:26.394Z,79.15
2019-01-28T07:57:54.720Z,79.16
2019-01-28T08:00:25.597Z,78.68
2019-01-28T08:02:54.000Z,78.09
2019-01-28T08:05:22.499Z,77.13
2019-01-28T08:07:50.894Z,75.71
2019-01-28T08:10:20.546Z,75.25
2019-01-28T08:12:49.006Z,74.18
2019-01-28T08:15:26.216Z,70.09
2019-01-28T08:17:54.552Z,66.65
2019-01-28T08:20:23.201Z,65.21
2019-01-28T08:22:51.592Z,65.84
2019-01-28T08:25:21.145Z,64.12
2019-01-28T08:27:50.030Z,61.29
2019-01-28T08:30:28.191Z,59.67
2019-01-28T08:32:56.577Z,58.33
2019-01-28T08:35:25.817Z,56.13
2019-01-28T08:37:54.285Z,57.57
2019-01-28T08:40:23.022Z,58.98
2019-01-28T08:42:51.423Z,58.66
2019-01-28T08:45:19.720Z,59.23
2019-01-28T08:47:48.125Z,60.02
2019-01-28T08:50:21.613Z,63.47
2019-01-28T08:52:50.117Z,65.80
2019-01-28T08:55:20.373Z,67.86
2019-01-28T08:57:49.408Z,68.56
2019-01-28T09:00:23.765Z,68.27
2019-01-28T09:02:53.160Z,68.67
2019-01-28T09:05:22.431Z,68.60
2019-01-28T09:07:51.012Z,68.61
2019-01-28T09:10:25.495Z,68.34
2019-01-28T09:12:53.950Z,68.18
2019-01-28T09:15:23.548Z,67.88
2019-01-28T09:17:51.890Z,67.57
2019-01-28T09:20:25.784Z,67.01
2019-01-28T09:22:54.263Z,67.41
2019-01-28T09:25:23.121Z,67.55
2019-01-28T09:27:51.587Z,67.09
2019-01-28T09:30:31.653Z,67.45
2019-01-28T09:33:00.185Z,66.34
2019-01-28T09:35:28.591Z,67.34
2019-01-28T09:37:57.329Z,67.66
2019-01-28T09:40:31.053Z,67.61
2019-01-28T09:42:59.600Z,66.95
2019-01-28T09:45:33.924Z,66.75
2019-01-28T09:48:02.338Z,66.46
2019-01-28T09:50:30.869Z,66.24
2019-01-28T09:52:59.395Z,66.80
2019-01-28T09:55:27.834Z,67.30
2019-01-28T09:57:56.990Z,67.42
2019-01-28T10:00:31.193Z,66.92
2019-01-28T10:02:59.775Z,66.88
2019-01-28T10:05:28.325Z,66.54
2019-01-28T10:07:56.742Z,65.71
2019-01-28T10:10:25.230Z,65.29
2019-01-28T10:12:53.926Z,65.12
2019-01-28T10:15:28.490Z,65.25
2019-01-28T10:17:55.654Z,65.07
2019-01-28T10:20:29.489Z,64.50
2019-01-28T10:22:57.889Z,64.76
2019-01-28T10:25:26.249Z,65.13
2019-01-28T10:27:54.660Z,65.78
2019-01-28T10:30:34.535Z,66.18
2019-01-28T10:33:03.576Z,66.78
2019-01-28T10:35:32.515Z,65.87
2019-01-28T10:38:01.001Z,65.67
2019-01-28T10:40:31.649Z,66.58
2019-01-28T10:43:00.305Z,66.32
2019-01-28T10:45:28.723Z,66.52
2019-01-28T10:48:00.651Z,66.89
2019-01-28T10:50:28.294Z,67.74
2019-01-28T10:52:56.865Z,68.06
2019-01-28T10:55:26.203Z,67.09
2019-01-28T10:57:54.973Z,67.27
2019-01-28T11:00:26.301Z,67.42
2019-01-28T11:02:55.668Z,68.52
2019-01-28T11:05:24.206Z,68.84
2019-01-28T11:07:52.697Z,68.72
2019-01-28T11:10:30.293Z,68.00
2019-01-28T11:12:58.690Z,68.67
2019-01-28T11:15:30.937Z,67.96
2019-01-28T11:18:02.719Z,68.56
2019-01-28T11:20:31.252Z,67.55
2019-01-28T11:23:00.278Z,66.97
2019-01-28T11:25:32.694Z,67.14
2019-01-28T11:28:01.249Z,67.03
2019-01-28T11:30:43.406Z,66.29
2019-01-28T11:33:11.902Z,66.51
2019-01-28T11:35:41.646Z,66.59
2019-01-28T11:38:10.424Z,66.23
2019-01-28T11:40:38.836Z,66.83
2019-01-28T11:43:07.582Z,67.04
2019-01-28T11:45:45.345Z,65.91
2019-01-28T11:48:14.045Z,66.20
2019-01-28T11:50:42.564Z,66.21
2019-01-28T11:53:11.906Z,65.92
2019-01-28T11:55:40.448Z,65.49
2019-01-28T11:58:08.833Z,66.08
2019-01-28T12:00:56.250Z,66.03
2019-01-28T12:03:24.436Z,66.12
2019-01-28T12:05:52.817Z,65.56
2019-01-28T12:08:21.268Z,66.04
2019-01-28T12:10:49.764Z,66.01
2019-01-28T12:13:18.278Z,65.84
2019-01-28T12:15:47.087Z,65.65
2019-01-28T12:18:18.611Z,65.65
2019-01-28T12:20:53.516Z,65.92
2019-01-28T12:23:17.220Z,65.65
2019-01-28T12:25:45.552Z,66.02
2019-01-28T12:28:14.035Z,66.08
2019-01-28T12:30:42.511Z,66.66
2019-01-28T12:33:12.438Z,66.62
2019-01-28T12:35:41.021Z,66.80
2019-01-28T12:38:09.753Z,67.38
2019-01-28T12:40:38.448Z,68.52
2019-01-28T12:43:07.130Z,68.60
2019-01-28T12:45:35.529Z,69.02
2019-01-28T12:48:04.176Z,69.72
2019-01-28T12:50:32.625Z,69.65
2019-01-28T12:53:01.391Z,69.19
2019-01-28T12:55:29.781Z,69.18
2019-01-28T12:57:58.190Z,70.43
2019-01-28T13:00:31.543Z,70.73
2019-01-28T13:02:59.942Z,71.09
2019-01-28T13:05:28.391Z,72.27
2019-01-28T13:07:56.797Z,71.99
2019-01-28T13:10:26.073Z,72.04
2019-01-28T13:12:54.766Z,72.91
2019-01-28T13:15:31.136Z,72.76
2019-01-28T13:17:59.686Z,72.08
2019-01-28T13:20:28.317Z,72.70
2019-01-28T13:22:56.749Z,73.22
2019-01-28T13:25:27.996Z,72.98
2019-01-28T13:27:56.397Z,73.83
2019-01-28T13:30:27.410Z,74.41
2019-01-28T13:32:56.968Z,74.67
2019-01-28T13:35:25.457Z,74.85
2019-01-28T13:37:53.996Z,76.37
2019-01-28T13:40:22.563Z,76.75
2019-01-28T13:42:50.939Z,76.36
2019-01-28T13:45:20.780Z,77.39
2019-01-28T13:47:50.192Z,77.63
2019-01-28T13:50:20.616Z,77.92
2019-01-28T13:52:49.379Z,77.72
2019-01-28T13:55:18.510Z,78.75
2019-01-28T13:57:46.830Z,79.29
2019-01-28T14:00:18.398Z,78.85
2019-01-28T14:02:46.969Z,79.10
2019-01-28T14:05:15.582Z,79.56
2019-01-28T14:07:44.210Z,79.67
2019-01-28T14:10:15.156Z,79.35
2019-01-28T14:12:43.704Z,80.67
2019-01-28T14:15:17.950Z,79.75
2019-01-28T14:17:46.250Z,79.55
2019-01-28T14:20:17.803Z,79.92
2019-01-28T14:22:48.048Z,80.48
2019-01-28T14:25:16.860Z,80.19
2019-01-28T14:27:49.815Z,79.94
2019-01-28T14:30:40.467Z,79.68
2019-01-28T14:33:11.152Z,80.47
2019-01-28T14:35:40.101Z,81.05
2019-01-28T14:38:09.537Z,80.15
2019-01-28T14:40:39.188Z,80.06
2019-01-28T14:43:07.674Z,80.50
2019-01-28T14:45:36.124Z,81.07
2019-01-28T14:48:05.816Z,80.83
2019-01-28T14:50:38.240Z,81.03
2019-01-28T14:53:06.805Z,80.93
2019-01-28T14:55:35.450Z,81.15
2019-01-28T14:58:04.463Z,81.36
2019-01-28T15:00:38.248Z,82.04
2019-01-28T15:03:06.821Z,81.43
2019-01-28T15:05:35.489Z,81.68
2019-01-28T15:08:04.420Z,82.52
2019-01-28T15:10:32.847Z,82.06
2019-01-28T15:13:01.330Z,82.00
2019-01-28T15:15:35.477Z,82.41
2019-01-28T15:18:04.497Z,81.95
2019-01-28T15:20:32.966Z,81.56
2019-01-28T15:23:01.943Z,81.74
2019-01-28T15:25:30.296Z,82.43
2019-01-28T15:27:58.972Z,82.56
2019-01-28T15:30:29.485Z,82.32
2019-01-28T15:32:58.217Z,81.78
2019-01-28T15:35:26.681Z,82.10
2019-01-28T15:37:55.108Z,83.30
2019-01-28T15:40:26.546Z,83.26
2019-01-28T15:42:55.051Z,83.12
2019-01-28T15:45:26.324Z,82.94
2019-01-28T15:47:54.681Z,83.22
2019-01-28T15:50:23.185Z,83.45
2019-01-28T15:52:51.573Z,83.65
2019-01-28T15:55:29.086Z,84.47
2019-01-28T15:57:59.899Z,84.32
2019-01-28T16:00:30.888Z,84.19
2019-01-28T16:02:59.345Z,84.38
2019-01-28T16:05:27.788Z,84.62
2019-01-28T16:07:56.679Z,84.39
2019-01-28T16:10:25.260Z,84.01
2019-01-28T16:12:53.616Z,84.27
2019-01-28T16:15:31.104Z,84.42
2019-01-28T16:17:59.501Z,84.35
2019-01-28T16:20:28.015Z,85.04
2019-01-28T16:22:56.450Z,84.95
2019-01-28T16:25:24.954Z,84.74
2019-01-28T16:27:53.355Z,84.84
2019-01-28T16:30:29.814Z,84.65
2019-01-28T16:32:58.252Z,84.45
2019-01-28T16:35:26.760Z,84.04
2019-01-28T16:37:55.405Z,84.76
2019-01-28T16:40:28.546Z,84.72
2019-01-28T16:42:57.947Z,84.57
2019-01-28T16:45:26.539Z,84.61
2019-01-28T16:47:55.010Z,84.61
2019-01-28T16:50:27.085Z,84.50
2019-01-28T16:52:55.888Z,84.32
2019-01-28T16:55:25.226Z,83.97
2019-01-28T16:57:54.003Z,83.61
2019-01-28T17:00:33.148Z,84.13
2019-01-28T17:03:01.737Z,84.10
2019-01-28T17:05:30.523Z,83.95
2019-01-28T17:07:58.975Z,84.06
2019-01-28T17:10:30.024Z,83.72
2019-01-28T17:12:58.465Z,84.04
2019-01-28T17:15:26.910Z,84.11
2019-01-28T17:17:55.307Z,84.22
2019-01-28T17:20:26.000Z,84.50
2019-01-28T17:22:54.757Z,84.26
2019-01-28T17:25:31.587Z,83.90
2019-01-28T17:28:00.023Z,83.91
2019-01-28T17:30:36.695Z,84.40
2019-01-28T17:33:06.191Z,84.54
2019-01-28T17:35:34.623Z,84.84
2019-01-28T17:38:04.491Z,84.39
2019-01-28T17:40:33.587Z,84.03
2019-01-28T17:43:02.149Z,83.81
2019-01-28T17:45:31.357Z,83.63
2019-01-28T17:48:00.335Z,83.19
2019-01-28T17:50:28.981Z,82.99
2019-01-28T17:53:00.159Z,83.16
2019-01-28T17:55:28.689Z,83.53
2019-01-28T17:57:57.887Z,83.44
2019-01-28T18:00:29.745Z,83.42
2019-01-28T18:02:58.495Z,83.33
2019-01-28T18:05:27.170Z,83.71
2019-01-28T18:07:55.624Z,83.91
2019-01-28T18:10:24.183Z,83.91
2019-01-28T18:12:52.698Z,83.82
2019-01-28T18:15:23.522Z,83.94
2019-01-28T18:17:51.891Z,83.86
2019-01-28T18:20:20.652Z,83.83
2019-01-28T18:22:49.098Z,83.60
2019-01-28T18:25:20.289Z,83.81
2019-01-28T18:27:48.669Z,83.85
2019-01-28T18:30:24.325Z,83.65
2019-01-28T18:32:52.813Z,83.98
2019-01-28T18:35:21.445Z,83.96
2019-01-28T18:37:49.938Z,84.10
2019-01-28T18:40:18.958Z,83.78
2019-01-28T18:42:47.530Z,82.93
2019-01-28T18:45:20.449Z,82.82
2019-01-28T18:47:49.201Z,83.02
2019-01-28T18:50:20.146Z,83.16
2019-01-28T18:52:48.693Z,82.94
2019-01-28T18:55:18.763Z,83.04
2019-01-28T18:57:49.518Z,82.92
2019-01-28T19:00:26.376Z,83.25
2019-01-28T19:02:55.885Z,83.04
2019-01-28T19:05:35.892Z,82.63
2019-01-28T19:08:06.195Z,82.59
2019-01-28T19:10:39.075Z,82.96
2019-01-28T19:13:09.084Z,83.26
2019-01-28T19:15:39.103Z,83.35
2019-01-28T19:18:12.295Z,82.96
2019-01-28T19:20:42.292Z,83.00
2019-01-28T19:23:11.062Z,82.99
2019-01-28T19:25:39.489Z,82.56
2019-01-28T19:28:07.973Z,82.64
2019-01-28T19:30:36.272Z,83.18
2019-01-28T19:33:05.362Z,82.97
2019-01-28T19:35:33.897Z,83.23
2019-01-28T19:38:02.462Z,83.07
2019-01-28T19:40:30.977Z,82.47
2019-01-28T19:42:59.697Z,82.53
2019-01-28T19:45:28.320Z,82.30
2019-01-28T19:47:56.725Z,82.00
2019-01-28T19:50:25.219Z,81.56
2019-01-28T19:52:53.794Z,81.49
2019-01-28T19:55:22.157Z,81.37
2019-01-28T19:57:50.560Z,80.84
2019-01-28T20:00:21.679Z,80.68
2019-01-28T20:02:50.223Z,80.44
2019-01-28T20:05:18.828Z,80.02
2019-01-28T20:07:47.404Z,79.00
2019-01-28T20:10:15.914Z,79.30
2019-01-28T20:12:44.483Z,78.84
2019-01-28T20:15:41.397Z,78.93
2019-01-28T20:18:09.892Z,79.10
2019-01-28T20:20:38.568Z,78.49
2019-01-28T20:23:07.058Z,77.77
2019-01-28T20:25:37.419Z,78.33
2019-01-28T20:28:05.874Z,78.00
2019-01-28T20:30:34.400Z,77.42
2019-01-28T20:33:02.844Z,76.81
2019-01-28T20:35:31.397Z,77.31
2019-01-28T20:37:59.755Z,77.28
2019-01-28T20:40:28.303Z,77.69
2019-01-28T20:42:56.616Z,76.85
2019-01-28T20:45:26.073Z,76.01
2019-01-28T20:47:55.559Z,76.59
2019-01-28T20:50:46.165Z,76.69
2019-01-28T20:53:17.102Z,76.71
2019-01-28T20:55:47.291Z,76.56
2019-01-28T20:58:15.698Z,75.25
2019-01-28T21:00:45.949Z,76.34
2019-01-28T21:03:14.404Z,76.01
2019-01-28T21:05:45.887Z,75.51
2019-01-28T21:08:14.679Z,74.86
2019-01-28T21:10:43.182Z,75.16
2019-01-28T21:13:13.243Z,74.71
2019-01-28T21:15:44.099Z,75.17
2019-01-28T21:18:14.143Z,75.10
2019-01-28T21:20:43.730Z,74.34
2019-01-28T21:23:13.030Z,74.18
2019-01-28T21:25:42.954Z,74.30
2019-01-28T21:28:11.382Z,74.49
2019-01-28T21:30:41.411Z,74.44
2019-01-28T21:33:12.521Z,74.26
2019-01-28T21:35:45.882Z,74.56
2019-01-28T21:38:25.697Z,73.96
2019-01-28T21:40:55.505Z,74.32
2019-01-28T21:43:25.376Z,74.34
2019-01-28T21:45:54.123Z,74.73
2019-01-28T21:48:22.959Z,74.69
2019-01-28T21:50:51.579Z,74.30
2019-01-28T21:53:22.090Z,74.31
2019-01-28T21:55:50.503Z,74.19
2019-01-28T21:58:19.328Z,73.60
2019-01-28T22:00:48.273Z,73.77
2019-01-28T22:03:18.565Z,74.07
2019-01-28T22:05:46.956Z,73.91
2019-01-28T22:08:16.358Z,73.59
2019-01-28T22:10:46.300Z,73.57
2019-01-28T22:13:14.728Z,73.45
2019-01-28T22:15:44.668Z,73.68
2019-01-28T22:18:13.110Z,73.91
2019-01-28T22:20:44.269Z,73.88
2019-01-28T22:23:13.850Z,72.95
2019-01-28T22:25:45.675Z,72.88
2019-01-28T22:28:16.025Z,72.69
2019-01-28T22:30:45.742Z,73.66
2019-01-28T22:33:15.272Z,74.80
2019-01-28T22:35:43.981Z,75.69
2019-01-28T22:38:12.310Z,75.74
2019-01-28T22:40:41.361Z,76.20
2019-01-28T22:43:10.044Z,76.76
2019-01-28T22:45:39.332Z,77.30
2019-01-28T22:48:08.529Z,77.12
2019-01-28T22:50:38.612Z,77.60
2019-01-28T22:53:07.555Z,77.42
2019-01-28T22:55:39.069Z,77.48
2019-01-28T22:58:08.518Z,78.06
2019-01-28T23:00:51.557Z,78.36
2019-01-28T23:03:21.726Z,78.19
2019-01-28T23:05:50.919Z,77.93
2019-01-28T23:08:20.768Z,78.48
2019-01-28T23:10:50.663Z,78.47
2019-01-28T23:13:21.607Z,78.50
2019-01-28T23:15:55.434Z,78.42
2019-01-28T23:18:24.551Z,78.28
2019-01-28T23:20:53.021Z,78.29
2019-01-28T23:23:23.732Z,78.11
2019-01-28T23:25:53.416Z,78.28
2019-01-28T23:28:21.818Z,78.42
2019-01-28T23:30:50.761Z,78.18
2019-01-28T23:33:21.503Z,78.54
2019-01-28T23:35:50.100Z,79.50
2019-01-28T23:38:20.813Z,78.69
2019-01-28T23:40:50.440Z,78.00
2019-01-28T23:43:21.701Z,77.71
2019-01-28T23:45:50.061Z,77.72
2019-01-28T23:48:21.642Z,77.82
2019-01-28T23:50:51.567Z,77.37
2019-01-28T23:53:21.891Z,77.23
2019-01-28T23:55:51.868Z,77.26
2019-01-28T23:58:21.159Z,77.22
